createdAt,value
2019-05-07T00:02:06.603Z,2.93
2019-05-07T00:04:35.941Z,3.33
2019-05-07T00:07:05.473Z,3.10
2019-05-07T00:09:35.108Z,3.83
2019-05-07T00:12:43.873Z,3.33
2019-05-07T00:15:54.060Z,2.60
2019-05-07T00:21:37.772Z,3.00
2019-05-07T00:24:46.703Z,2.70
2019-05-07T00:27:55.641Z,2.70
2019-05-07T00:36:43.979Z,2.87
2019-05-07T00:39:32.765Z,3.10
2019-05-07T00:42:22.694Z,3.23
2019-05-07T00:48:02.906Z,3.27
2019-05-07T00:50:35.625Z,3.50
2019-05-07T00:53:44.888Z,3.10
2019-05-07T00:59:28.996Z,3.67
2019-05-07T01:05:27.008Z,3.43
2019-05-07T01:11:13.196Z,3.20
2019-05-07T01:16:44.667Z,3.37
2019-05-07T01:19:14.065Z,3.40
2019-05-07T01:22:22.765Z,3.50
2019-05-07T01:27:42.844Z,3.43
2019-05-07T01:30:14.594Z,3.50
2019-05-07T01:36:05.529Z,3.33
2019-05-07T01:41:52.303Z,3.50
2019-05-07T01:44:22.117Z,3.40
2019-05-07T01:46:53.038Z,3.37
2019-05-07T01:51:59.694Z,3.40
2019-05-07T01:54:29.420Z,3.93
2019-05-07T01:57:17.803Z,3.70
2019-05-07T02:03:23.108Z,3.60
2019-05-07T02:06:13.189Z,4.27
2019-05-07T02:09:03.316Z,3.93
2019-05-07T02:14:46.854Z,3.60
2019-05-07T02:17:16.604Z,4.13
2019-05-07T02:19:46.099Z,4.47
2019-05-07T02:25:12.653Z,4.10
2019-05-07T02:30:57.645Z,3.77
2019-05-07T02:34:06.351Z,4.43
2019-05-07T02:39:33.296Z,4.43
2019-05-07T02:45:03.724Z,5.00
2019-05-07T02:54:13.428Z,4.73
2019-05-07T02:56:43.175Z,4.20
2019-05-07T02:59:13.608Z,4.63
2019-05-07T03:01:44.591Z,4.07
2019-05-07T03:04:14.179Z,3.37
2019-05-07T03:06:44.253Z,3.40
2019-05-07T03:12:16.658Z,3.03
2019-05-07T03:14:46.205Z,3.03
2019-05-07T03:17:15.741Z,2.70
2019-05-07T03:20:24.548Z,2.90
2019-05-07T03:26:14.435Z,3.13
2019-05-07T03:29:03.945Z,3.20
2019-05-07T03:31:56.235Z,2.80
2019-05-07T03:34:46.719Z,3.23
2019-05-07T03:39:55.215Z,3.67
2019-05-07T03:42:24.805Z,3.60
2019-05-07T03:45:13.829Z,3.70
2019-05-07T03:47:48.086Z,4.10
2019-05-07T03:50:17.640Z,3.67
2019-05-07T03:52:47.120Z,3.73
2019-05-07T03:55:16.785Z,3.70
2019-05-07T03:58:25.578Z,3.70
2019-05-07T04:03:56.235Z,4.50
2019-05-07T04:07:05.000Z,4.10
2019-05-07T04:10:15.444Z,3.80
2019-05-07T04:12:46.378Z,3.80
2019-05-07T04:15:55.115Z,4.20
2019-05-07T04:18:24.653Z,3.23
2019-05-07T04:20:54.337Z,4.10
2019-05-07T04:29:15.838Z,3.90
2019-05-07T04:31:45.881Z,4.07
2019-05-07T04:37:23.784Z,4.20
2019-05-07T04:40:13.513Z,3.73
2019-05-07T04:42:43.069Z,4.73
2019-05-07T04:45:53.723Z,3.60
2019-05-07T04:48:23.760Z,2.80
2019-05-07T04:51:08.669Z,2.37
2019-05-07T04:53:38.226Z,2.53
2019-05-07T04:56:07.849Z,2.40
2019-05-07T04:58:37.762Z,1.90
2019-05-07T05:03:44.558Z,2.00
2019-05-07T05:06:14.067Z,1.80
2019-05-07T05:08:43.837Z,2.27
2019-05-07T05:11:15.383Z,2.17
2019-05-07T05:16:54.482Z,2.00
2019-05-07T05:19:23.873Z,2.30
2019-05-07T05:22:12.800Z,2.20
2019-05-07T05:27:36.045Z,2.10
2019-05-07T05:33:23.477Z,2.50
2019-05-07T05:35:53.141Z,2.10
2019-05-07T05:38:22.702Z,2.07
2019-05-07T05:40:52.302Z,2.20
2019-05-07T05:43:42.874Z,2.77
2019-05-07T05:46:13.574Z,2.30
2019-05-07T05:51:59.356Z,2.80
2019-05-07T05:54:32.666Z,2.80
2019-05-07T06:00:53.022Z,2.50
2019-05-07T06:03:53.882Z,2.30
2019-05-07T06:06:43.298Z,2.40
2019-05-07T06:17:45.826Z,3.20
2019-05-07T06:23:36.280Z,2.63
2019-05-07T06:29:02.456Z,2.90
2019-05-07T06:31:33.957Z,2.80
2019-05-07T06:34:03.377Z,2.90
2019-05-07T06:40:02.639Z,2.70
2019-05-07T06:42:54.929Z,2.90
2019-05-07T06:50:59.395Z,3.03
2019-05-07T06:56:44.844Z,2.60
2019-05-07T06:59:54.059Z,2.70
2019-05-07T07:08:12.489Z,2.90
2019-05-07T07:11:02.735Z,2.20
2019-05-07T07:14:11.966Z,2.43
2019-05-07T07:16:43.026Z,2.70
2019-05-07T07:19:53.685Z,2.50
2019-05-07T07:22:23.880Z,2.67
2019-05-07T07:24:53.392Z,2.60
2019-05-07T07:27:23.010Z,2.50
2019-05-07T07:32:49.173Z,2.83
2019-05-07T07:35:19.630Z,2.80
2019-05-07T07:38:28.460Z,2.57
2019-05-07T07:47:14.701Z,3.03
2019-05-07T07:52:42.027Z,2.60
2019-05-07T07:58:46.825Z,2.50
2019-05-07T08:07:15.209Z,2.40
2019-05-07T08:09:44.725Z,2.43
2019-05-07T08:15:35.048Z,2.53
2019-05-07T08:21:29.769Z,2.50
2019-05-07T08:24:02.734Z,2.20
2019-05-07T08:26:32.516Z,2.20
2019-05-07T08:32:35.169Z,2.30
2019-05-07T08:35:44.127Z,2.33
2019-05-07T08:50:57.875Z,2.20
2019-05-07T08:53:27.401Z,2.30
2019-05-07T08:59:57.445Z,2.10
2019-05-07T09:02:21.777Z,2.40
2019-05-07T09:04:52.230Z,2.33
2019-05-07T09:08:02.256Z,2.20
2019-05-07T09:10:32.727Z,2.37
2019-05-07T09:13:04.216Z,2.30
2019-05-07T09:18:48.828Z,1.80
2019-05-07T09:21:18.260Z,2.20
2019-05-07T09:27:02.990Z,1.97
2019-05-07T09:38:06.554Z,1.90
2019-05-07T09:43:45.004Z,2.00
2019-05-07T09:46:14.504Z,1.90
2019-05-07T09:48:43.856Z,1.90
2019-05-07T09:51:52.633Z,2.10
2019-05-07T09:54:23.106Z,2.23
2019-05-07T09:57:34.745Z,2.00
2019-05-07T10:09:02.952Z,1.83
2019-05-07T10:14:57.360Z,1.93
2019-05-07T10:20:42.251Z,2.10
2019-05-07T10:26:22.554Z,2.43
2019-05-07T10:32:06.687Z,2.40
2019-05-07T10:34:36.107Z,2.30
2019-05-07T10:37:05.699Z,2.50
2019-05-07T10:39:35.124Z,2.20
2019-05-07T10:42:04.673Z,1.87
2019-05-07T10:47:48.930Z,2.10
2019-05-07T10:50:39.319Z,2.33
2019-05-07T10:53:09.400Z,2.20
2019-05-07T10:55:39.004Z,2.70
2019-05-07T10:58:08.515Z,2.30
2019-05-07T11:09:37.934Z,1.70
2019-05-07T11:12:07.594Z,2.30
2019-05-07T11:14:37.045Z,2.30
2019-05-07T11:20:03.409Z,2.20
2019-05-07T11:23:12.211Z,2.40
2019-05-07T11:25:42.159Z,2.17
2019-05-07T11:28:13.530Z,2.20
2019-05-07T11:30:43.408Z,2.30
2019-05-07T11:33:13.070Z,2.10
2019-05-07T11:35:44.139Z,2.07
2019-05-07T11:38:53.968Z,2.40
2019-05-07T11:41:42.877Z,1.93
2019-05-07T11:44:18.154Z,2.20
2019-05-07T11:47:06.481Z,2.67
2019-05-07T11:55:52.290Z,5.67
2019-05-07T11:58:22.115Z,2.40
2019-05-07T12:06:32.158Z,10.43
2019-05-07T12:12:06.856Z,1.90
2019-05-07T12:14:36.210Z,2.33
2019-05-07T12:17:44.892Z,2.40
2019-05-07T12:23:12.141Z,1.90
2019-05-07T12:25:42.899Z,2.03
2019-05-07T12:28:13.246Z,2.77
2019-05-07T12:31:12.161Z,2.63
2019-05-07T12:34:02.418Z,2.00
2019-05-07T12:36:39.939Z,2.10
2019-05-07T12:39:10.107Z,2.37
2019-05-07T12:41:41.735Z,2.20
2019-05-07T12:44:12.976Z,1.93
2019-05-07T12:46:42.477Z,2.47
2019-05-07T12:49:12.204Z,2.67
2019-05-07T12:51:56.236Z,2.70
2019-05-07T12:57:34.633Z,2.47
2019-05-07T13:03:21.829Z,2.33
2019-05-07T13:05:52.055Z,2.50
2019-05-07T13:08:23.009Z,2.27
2019-05-07T13:10:52.784Z,2.43
2019-05-07T13:13:22.244Z,3.03
2019-05-07T13:15:51.852Z,2.10
2019-05-07T13:18:23.263Z,2.40
2019-05-07T13:23:42.211Z,2.40
2019-05-07T13:26:12.637Z,2.00
2019-05-07T13:28:44.389Z,1.97
2019-05-07T13:31:13.558Z,2.00
2019-05-07T13:34:22.932Z,2.13
2019-05-07T13:37:15.087Z,2.00
2019-05-07T13:39:55.643Z,1.93
2019-05-07T13:42:44.119Z,2.33
2019-05-07T13:45:22.431Z,3.90
2019-05-07T13:47:58.312Z,1.83
2019-05-07T13:50:27.821Z,1.50
2019-05-07T13:52:57.570Z,1.67
2019-05-07T13:55:26.944Z,2.23
2019-05-07T13:57:56.644Z,2.03
2019-05-07T14:06:33.817Z,2.00
2019-05-07T14:12:06.147Z,1.80
2019-05-07T14:20:42.481Z,1.23
2019-05-07T14:23:14.160Z,1.40
2019-05-07T14:25:54.748Z,1.87
2019-05-07T14:28:24.351Z,1.67
2019-05-07T14:30:53.733Z,1.80
2019-05-07T14:33:41.376Z,3.97
2019-05-07T14:36:27.530Z,1.40
2019-05-07T14:38:56.907Z,1.50
2019-05-07T14:41:26.863Z,1.63
2019-05-07T14:46:50.419Z,2.57
2019-05-07T14:49:12.716Z,1.70
2019-05-07T14:51:42.220Z,1.60
2019-05-07T14:54:12.352Z,1.50
2019-05-07T14:59:57.839Z,1.20
2019-05-07T15:05:23.145Z,1.40
2019-05-07T15:10:56.157Z,1.67
2019-05-07T15:13:25.861Z,1.50
2019-05-07T15:15:55.286Z,1.80
2019-05-07T15:18:43.618Z,1.30
2019-05-07T15:27:16.800Z,1.33
2019-05-07T15:29:46.313Z,1.40
2019-05-07T15:32:15.730Z,1.40
2019-05-07T15:34:45.209Z,1.63
2019-05-07T15:37:14.718Z,1.40
2019-05-07T15:40:23.402Z,1.50
2019-05-07T15:43:32.505Z,1.43
2019-05-07T15:46:04.281Z,1.20
2019-05-07T15:48:33.712Z,1.67
2019-05-07T15:51:03.083Z,1.37
2019-05-07T15:53:52.166Z,1.97
2019-05-07T15:56:22.025Z,1.00
2019-05-07T16:05:02.193Z,1.30
2019-05-07T16:07:32.851Z,1.60
2019-05-07T16:16:21.554Z,1.27
2019-05-07T16:19:23.323Z,1.40
2019-05-07T16:22:32.816Z,1.10
2019-05-07T16:28:29.567Z,1.50
2019-05-07T16:31:00.099Z,1.53
2019-05-07T16:33:29.517Z,1.13
2019-05-07T16:35:59.142Z,1.20
2019-05-07T16:44:52.322Z,1.30
2019-05-07T16:47:22.829Z,1.10
2019-05-07T16:50:13.077Z,1.17
2019-05-07T16:52:44.393Z,1.57
2019-05-07T16:58:48.206Z,1.53
2019-05-07T17:01:37.443Z,1.20
2019-05-07T17:07:10.699Z,1.10
2019-05-07T17:09:40.122Z,1.00
2019-05-07T17:15:02.754Z,1.17
2019-05-07T17:17:32.118Z,1.30
2019-05-07T17:20:02.771Z,1.50
2019-05-07T17:22:32.510Z,1.47
2019-05-07T17:34:11.634Z,1.43
2019-05-07T17:40:06.590Z,1.63
2019-05-07T17:45:26.502Z,1.90
2019-05-07T17:47:56.245Z,2.30
2019-05-07T17:53:06.133Z,1.90
2019-05-07T17:55:35.776Z,3.43
2019-05-07T18:03:39.404Z,2.07
2019-05-07T18:06:09.821Z,2.57
2019-05-07T18:08:42.539Z,1.93
2019-05-07T18:11:21.018Z,2.33
2019-05-07T18:13:43.235Z,2.20
2019-05-07T18:22:09.525Z,2.23
2019-05-07T18:24:38.941Z,2.20
2019-05-07T18:29:58.670Z,2.50
2019-05-07T18:32:36.746Z,2.87
2019-05-07T18:38:16.011Z,2.17
2019-05-07T18:40:45.396Z,2.10
2019-05-07T18:43:14.862Z,2.03
2019-05-07T18:45:44.997Z,2.40
2019-05-07T18:48:14.419Z,2.27
2019-05-07T18:50:45.187Z,2.43
2019-05-07T18:53:14.777Z,2.30
2019-05-07T18:55:44.579Z,2.53
2019-05-07T18:58:54.722Z,2.50
2019-05-07T19:01:26.145Z,2.30
2019-05-07T19:03:56.269Z,2.03
2019-05-07T19:06:25.678Z,2.77
2019-05-07T19:08:55.118Z,2.37
2019-05-07T19:11:24.614Z,2.53
2019-05-07T19:19:33.001Z,2.73
2019-05-07T19:22:02.373Z,2.03
2019-05-07T19:24:44.711Z,2.43
2019-05-07T19:27:02.876Z,2.47
2019-05-07T19:29:32.753Z,2.30
2019-05-07T19:32:14.953Z,2.33
2019-05-07T19:37:53.335Z,2.90
2019-05-07T19:40:42.053Z,3.30
2019-05-07T19:43:14.313Z,3.07
2019-05-07T19:46:03.276Z,3.47
2019-05-07T19:48:33.981Z,3.10
2019-05-07T19:51:03.351Z,3.57
2019-05-07T19:53:32.886Z,4.07
2019-05-07T19:56:11.068Z,3.20
2019-05-07T19:58:41.959Z,3.47
2019-05-07T20:01:13.491Z,3.77
2019-05-07T20:03:43.533Z,3.80
2019-05-07T20:06:13.124Z,3.67
2019-05-07T20:09:21.818Z,4.00
2019-05-07T20:14:47.613Z,4.13
2019-05-07T20:17:56.482Z,3.83
2019-05-07T20:20:26.094Z,4.30
2019-05-07T20:22:55.473Z,4.07
2019-05-07T20:26:05.339Z,3.97
2019-05-07T20:28:36.340Z,3.87
2019-05-07T20:31:05.930Z,3.90
2019-05-07T20:33:35.853Z,3.60
2019-05-07T20:42:07.894Z,3.43
2019-05-07T20:45:17.084Z,3.47
2019-05-07T20:50:37.061Z,3.20
2019-05-07T20:58:40.318Z,3.07
2019-05-07T21:01:09.713Z,3.33
2019-05-07T21:03:39.897Z,3.20
2019-05-07T21:08:46.532Z,2.70
2019-05-07T21:11:15.956Z,3.00
2019-05-07T21:13:45.505Z,2.83
2019-05-07T21:16:15.584Z,2.43
2019-05-07T21:18:45.312Z,2.20
2019-05-07T21:21:14.827Z,2.10
2019-05-07T21:23:44.320Z,1.70
2019-05-07T21:26:13.950Z,2.30
2019-05-07T21:28:43.602Z,1.90
2019-05-07T21:31:13.136Z,2.30
2019-05-07T21:36:38.298Z,2.30
2019-05-07T21:42:35.902Z,2.20
2019-05-07T21:48:22.133Z,2.00
2019-05-07T21:51:12.171Z,2.23
2019-05-07T21:57:02.332Z,2.10
2019-05-07T22:08:21.899Z,2.27
2019-05-07T22:10:52.554Z,2.20
2019-05-07T22:13:22.233Z,2.20
2019-05-07T22:22:34.564Z,2.10
2019-05-07T22:25:05.276Z,2.40
2019-05-07T22:27:34.901Z,2.20
2019-05-07T22:30:44.051Z,2.27
2019-05-07T22:39:37.347Z,2.00
2019-05-07T22:44:58.134Z,2.27
2019-05-07T22:47:27.670Z,2.40
2019-05-07T22:49:57.442Z,2.70
2019-05-07T22:52:27.031Z,2.00
2019-05-07T22:58:32.447Z,2.23
2019-05-07T23:04:12.118Z,2.60
2019-05-07T23:06:41.577Z,2.00
2019-05-07T23:12:14.554Z,1.80
2019-05-07T23:18:32.725Z,1.33
2019-05-07T23:21:02.706Z,1.37
2019-05-07T23:24:11.443Z,1.90
2019-05-07T23:26:50.277Z,2.20
2019-05-07T23:29:12.805Z,1.73
2019-05-07T23:31:42.322Z,1.80
2019-05-07T23:37:22.465Z,2.07
2019-05-07T23:46:08.555Z,2.10
2019-05-07T23:48:37.896Z,2.07
2019-05-07T23:51:47.749Z,2.30
2019-05-07T23:54:17.264Z,2.10
2019-05-07T23:56:46.619Z,2.00
